createdAt,value
2018-09-27T00:00:24.790Z,78.15
2018-09-27T00:01:24.779Z,78.05
2018-09-27T00:02:24.799Z,77.53
2018-09-27T00:03:24.751Z,77.84
2018-09-27T00:04:24.738Z,77.94
2018-09-27T00:05:24.728Z,77.87
2018-09-27T00:06:24.729Z,77.23
2018-09-27T00:07:24.749Z,77.12
2018-09-27T00:08:24.698Z,77.06
2018-09-27T00:09:24.706Z,77.47
2018-09-27T00:10:24.702Z,76.85
2018-09-27T00:11:24.663Z,78.08
2018-09-27T00:12:24.757Z,77.77
2018-09-27T00:13:24.646Z,78.08
2018-09-27T00:14:24.638Z,79.31
2018-09-27T00:15:24.650Z,78.80
2018-09-27T00:16:24.639Z,78.80
2018-09-27T00:17:24.607Z,78.80
2018-09-27T00:18:24.581Z,78.49
2018-09-27T00:19:24.605Z,78.83
2018-09-27T00:20:24.564Z,78.74
2018-09-27T00:21:24.577Z,78.83
2018-09-27T00:22:24.540Z,78.74
2018-09-27T00:23:24.531Z,78.42
2018-09-27T00:24:24.522Z,78.22
2018-09-27T00:25:24.506Z,78.12
2018-09-27T00:26:24.520Z,79.04
2018-09-27T00:27:24.489Z,79.35
2018-09-27T00:28:24.471Z,78.83
2018-09-27T00:29:24.465Z,79.04
2018-09-27T00:30:24.447Z,79.35
2018-09-27T00:31:24.483Z,79.24
2018-09-27T00:32:24.429Z,79.35
2018-09-27T00:33:24.413Z,79.14
2018-09-27T00:34:24.409Z,79.35
2018-09-27T00:35:24.403Z,79.80
2018-09-27T00:36:24.432Z,79.45
2018-09-27T00:37:24.369Z,79.66
2018-09-27T00:38:24.388Z,79.69
2018-09-27T00:39:24.373Z,79.59
2018-09-27T00:40:24.400Z,79.90
2018-09-27T00:41:24.326Z,79.90
2018-09-27T00:42:24.372Z,80.21
2018-09-27T00:43:24.305Z,80.31
2018-09-27T00:44:24.290Z,80.31
2018-09-27T00:45:24.288Z,80.10
2018-09-27T00:46:24.266Z,80.72
2018-09-27T00:47:24.295Z,80.41
2018-09-27T00:48:24.247Z,80.31
2018-09-27T00:49:24.237Z,80.31
2018-09-27T00:50:24.236Z,80.31
2018-09-27T00:51:24.247Z,80.31
2018-09-27T00:52:24.228Z,80.41
2018-09-27T00:53:24.190Z,80.62
2018-09-27T00:54:24.180Z,79.69
2018-09-27T00:55:24.174Z,79.49
2018-09-27T00:56:24.192Z,79.28
2018-09-27T00:57:24.147Z,80.21
2018-09-27T00:58:24.137Z,80.41
2018-09-27T00:59:24.122Z,80.41
2018-09-27T01:00:24.119Z,80.65
2018-09-27T01:01:24.134Z,80.62
2018-09-27T01:02:24.093Z,80.65
2018-09-27T01:03:24.081Z,80.14
2018-09-27T01:04:24.064Z,80.35
2018-09-27T01:05:24.085Z,80.10
2018-09-27T01:06:24.046Z,80.10
2018-09-27T01:07:24.035Z,80.00
2018-09-27T01:08:24.026Z,80.31
2018-09-27T01:09:24.046Z,80.65
2018-09-27T01:10:24.000Z,80.51
2018-09-27T01:11:24.031Z,80.76
2018-09-27T01:12:23.984Z,80.00
2018-09-27T01:13:24.015Z,80.00
2018-09-27T01:14:23.956Z,80.31
2018-09-27T01:15:23.941Z,79.69
2018-09-27T01:16:23.926Z,80.24
2018-09-27T01:17:23.932Z,80.21
2018-09-27T01:18:23.947Z,80.41
2018-09-27T01:19:23.900Z,80.65
2018-09-27T01:20:23.892Z,80.65
2018-09-27T01:21:23.870Z,80.55
2018-09-27T01:22:23.866Z,80.62
2018-09-27T01:23:23.886Z,80.35
2018-09-27T01:24:23.842Z,80.72
2018-09-27T01:25:23.864Z,80.45
2018-09-27T01:26:23.821Z,80.45
2018-09-27T01:27:23.923Z,80.35
2018-09-27T01:28:23.797Z,80.55
2018-09-27T01:29:23.811Z,80.62
2018-09-27T01:30:23.818Z,80.45
2018-09-27T01:31:23.761Z,80.14
2018-09-27T01:32:31.085Z,79.52
2018-09-27T01:33:23.737Z,79.49
2018-09-27T01:34:23.729Z,80.65
2018-09-27T01:35:23.761Z,80.24
2018-09-27T01:36:23.702Z,80.04
2018-09-27T01:37:23.692Z,80.04
2018-09-27T01:38:23.683Z,80.24
2018-09-27T01:39:23.700Z,80.35
2018-09-27T01:40:23.657Z,80.35
2018-09-27T01:42:32.430Z,80.14
2018-09-27T01:43:32.414Z,79.42
2018-09-27T01:44:32.376Z,80.45
2018-09-27T01:45:32.362Z,80.45
2018-09-27T01:46:32.360Z,80.18
2018-09-27T01:47:32.351Z,79.83
2018-09-27T01:48:32.374Z,80.55
2018-09-27T01:49:32.323Z,81.16
2018-09-27T01:50:32.328Z,80.38
2018-09-27T01:51:32.294Z,80.90
2018-09-27T01:52:32.321Z,80.90
2018-09-27T01:53:32.275Z,81.20
2018-09-27T01:54:32.263Z,81.20
2018-09-27T01:55:32.252Z,81.20
2018-09-27T01:56:32.238Z,81.20
2018-09-27T01:57:32.260Z,80.79
2018-09-27T01:58:32.218Z,81.62
2018-09-27T01:59:32.212Z,81.10
2018-09-27T02:00:32.201Z,81.30
2018-09-27T02:01:32.221Z,80.90
2018-09-27T02:02:32.192Z,80.90
2018-09-27T02:03:32.161Z,80.90
2018-09-27T02:04:32.151Z,80.49
2018-09-27T02:05:32.145Z,81.00
2018-09-27T02:06:32.308Z,80.79
2018-09-27T02:07:32.203Z,80.90
2018-09-27T02:08:32.186Z,80.58
2018-09-27T02:09:32.186Z,80.69
2018-09-27T02:10:32.171Z,80.69
2018-09-27T02:11:32.289Z,80.69
2018-09-27T02:12:32.062Z,81.20
2018-09-27T02:13:32.052Z,81.62
2018-09-27T02:14:32.071Z,81.20
2018-09-27T02:15:32.028Z,80.73
2018-09-27T02:16:32.042Z,81.45
2018-09-27T02:17:32.049Z,81.76
2018-09-27T02:18:32.041Z,81.55
2018-09-27T02:19:31.985Z,80.83
2018-09-27T02:20:31.972Z,80.93
2018-09-27T02:21:31.960Z,81.76
2018-09-27T02:22:32.154Z,81.04
2018-09-27T02:23:31.938Z,81.14
2018-09-27T02:24:31.927Z,81.04
2018-09-27T02:25:31.914Z,81.55
2018-09-27T02:26:31.946Z,82.17
2018-09-27T02:27:31.921Z,81.34
2018-09-27T02:28:31.920Z,81.65
2018-09-27T02:29:31.868Z,81.76
2018-09-27T02:30:31.862Z,80.83
2018-09-27T02:31:31.882Z,81.55
2018-09-27T02:32:31.837Z,81.45
2018-09-27T02:33:31.873Z,80.83
2018-09-27T02:34:31.818Z,80.93
2018-09-27T02:35:31.807Z,81.55
2018-09-27T02:36:31.830Z,81.59
2018-09-27T02:37:31.783Z,81.65
2018-09-27T02:38:31.773Z,81.76
2018-09-27T02:39:31.825Z,82.47
2018-09-27T02:40:31.750Z,82.37
2018-09-27T02:41:31.738Z,82.27
2018-09-27T02:42:31.728Z,81.86
2018-09-27T02:43:31.743Z,82.71
2018-09-27T02:44:31.712Z,82.31
2018-09-27T02:45:31.690Z,81.86
2018-09-27T02:46:31.717Z,81.04
2018-09-27T02:47:31.668Z,81.96
2018-09-27T02:48:31.697Z,81.34
2018-09-27T02:49:31.688Z,81.69
2018-09-27T02:50:31.666Z,82.20
2018-09-27T02:51:31.625Z,82.51
2018-09-27T02:52:31.615Z,82.20
2018-09-27T02:53:31.605Z,82.62
2018-09-27T02:54:31.629Z,82.51
2018-09-27T02:55:31.584Z,81.59
2018-09-27T02:56:31.573Z,82.20
2018-09-27T02:57:31.559Z,81.69
2018-09-27T02:58:31.658Z,81.48
2018-09-27T02:59:31.565Z,82.00
2018-09-27T03:00:31.564Z,82.00
2018-09-27T03:01:31.586Z,82.41
2018-09-27T03:02:31.506Z,82.41
2018-09-27T03:03:31.495Z,82.71
2018-09-27T03:04:31.492Z,82.62
2018-09-27T03:05:31.505Z,81.90
2018-09-27T03:06:31.464Z,82.82
2018-09-27T03:07:31.451Z,82.62
2018-09-27T03:08:31.439Z,82.00
2018-09-27T03:09:31.422Z,82.57
2018-09-27T03:10:31.469Z,82.92
2018-09-27T03:11:31.408Z,82.82
2018-09-27T03:12:31.389Z,82.31
2018-09-27T03:13:31.380Z,82.10
2018-09-27T03:14:31.374Z,82.51
2018-09-27T03:15:31.401Z,82.71
2018-09-27T03:16:31.344Z,82.20
2018-09-27T03:17:31.343Z,82.51
2018-09-27T03:18:31.335Z,82.00
2018-09-27T03:19:31.315Z,82.37
2018-09-27T03:20:31.363Z,82.31
2018-09-27T03:21:31.326Z,82.71
2018-09-27T03:22:31.283Z,82.10
2018-09-27T03:23:31.271Z,82.51
2018-09-27T03:24:31.258Z,82.62
2018-09-27T03:25:31.338Z,82.31
2018-09-27T03:26:31.241Z,82.31
2018-09-27T03:27:31.227Z,82.10
2018-09-27T03:28:31.217Z,82.62
2018-09-27T03:29:31.205Z,82.96
2018-09-27T03:30:31.221Z,82.86
2018-09-27T03:31:31.185Z,82.55
2018-09-27T03:32:31.201Z,82.96
2018-09-27T03:33:31.156Z,83.68
2018-09-27T03:34:31.181Z,83.06
2018-09-27T03:35:31.218Z,83.27
2018-09-27T03:36:31.162Z,83.58
2018-09-27T03:37:31.113Z,83.37
2018-09-27T03:38:31.102Z,82.65
2018-09-27T03:39:31.090Z,82.96
2018-09-27T03:40:31.130Z,83.37
2018-09-27T03:41:31.169Z,82.65
2018-09-27T03:42:31.055Z,82.86
2018-09-27T03:43:31.086Z,83.06
2018-09-27T03:44:31.033Z,83.17
2018-09-27T03:45:31.057Z,83.37
2018-09-27T03:46:31.014Z,83.48
2018-09-27T03:47:31.014Z,83.27
2018-09-27T03:48:30.988Z,83.58
2018-09-27T03:49:30.981Z,83.58
2018-09-27T03:50:31.003Z,83.58
2018-09-27T03:51:30.972Z,83.27
2018-09-27T03:52:30.947Z,83.68
2018-09-27T03:53:30.974Z,83.06
2018-09-27T03:54:30.925Z,83.27
2018-09-27T03:55:30.908Z,83.06
2018-09-27T03:56:30.903Z,83.48
2018-09-27T03:57:30.891Z,83.37
2018-09-27T03:58:30.910Z,83.48
2018-09-27T03:59:30.869Z,83.37
2018-09-27T04:00:30.894Z,83.17
2018-09-27T04:01:30.849Z,82.86
2018-09-27T04:02:30.833Z,82.65
2018-09-27T04:03:30.824Z,82.45
2018-09-27T04:04:30.812Z,82.86
2018-09-27T04:05:30.830Z,82.65
2018-09-27T04:06:30.807Z,82.14
2018-09-27T04:07:30.782Z,82.34
2018-09-27T04:08:30.766Z,82.45
2018-09-27T04:09:30.793Z,82.45
2018-09-27T04:10:30.747Z,82.34
2018-09-27T04:11:30.780Z,82.76
2018-09-27T04:12:30.724Z,82.45
2018-09-27T04:13:30.711Z,82.65
2018-09-27T04:14:30.728Z,82.65
2018-09-27T04:15:30.683Z,82.76
2018-09-27T04:16:30.690Z,82.65
2018-09-27T04:17:30.666Z,83.20
2018-09-27T04:18:30.659Z,83.31
2018-09-27T04:19:30.671Z,83.11
2018-09-27T04:20:30.633Z,83.27
2018-09-27T04:21:30.617Z,83.20
2018-09-27T04:22:30.611Z,83.72
2018-09-27T04:23:30.599Z,83.62
2018-09-27T04:24:30.629Z,83.11
2018-09-27T04:25:30.581Z,83.06
2018-09-27T04:26:30.564Z,83.41
2018-09-27T04:27:30.640Z,82.79
2018-09-27T04:28:30.546Z,83.00
2018-09-27T04:29:30.566Z,83.20
2018-09-27T04:30:30.522Z,83.62
2018-09-27T04:31:30.517Z,83.51
2018-09-27T04:32:30.497Z,83.62
2018-09-27T04:33:30.525Z,83.72
2018-09-27T04:34:30.499Z,84.13
2018-09-27T04:35:30.471Z,84.03
2018-09-27T04:36:30.455Z,83.48
2018-09-27T04:37:30.498Z,83.51
2018-09-27T04:38:30.438Z,83.72
2018-09-27T04:39:30.418Z,82.79
2018-09-27T04:40:30.414Z,82.90
2018-09-27T04:41:30.397Z,83.51
2018-09-27T04:42:30.422Z,83.83
2018-09-27T04:43:30.378Z,83.51
2018-09-27T04:44:30.364Z,83.62
2018-09-27T04:45:30.358Z,83.72
2018-09-27T04:46:30.396Z,83.72
2018-09-27T04:47:30.341Z,84.23
2018-09-27T04:48:30.324Z,83.83
2018-09-27T04:49:30.310Z,84.75
2018-09-27T04:50:30.303Z,84.75
2018-09-27T04:51:30.371Z,83.83
2018-09-27T04:52:30.285Z,83.41
2018-09-27T04:53:30.266Z,83.55
2018-09-27T04:54:30.279Z,83.65
2018-09-27T04:55:30.282Z,83.41
2018-09-27T04:56:30.227Z,83.55
2018-09-27T04:57:30.220Z,83.55
2018-09-27T04:58:30.237Z,84.69
2018-09-27T04:59:30.227Z,84.13
2018-09-27T05:00:30.190Z,84.58
2018-09-27T05:01:30.181Z,83.76
2018-09-27T05:02:30.169Z,83.76
2018-09-27T05:03:30.164Z,83.92
2018-09-27T05:04:30.178Z,84.54
2018-09-27T05:05:30.140Z,84.48
2018-09-27T05:06:30.127Z,85.71
2018-09-27T05:07:30.125Z,84.64
2018-09-27T05:08:30.104Z,85.41
2018-09-27T05:09:30.132Z,84.75
2018-09-27T05:10:30.074Z,84.95
2018-09-27T05:11:30.068Z,84.64
2018-09-27T05:12:30.053Z,83.72
2018-09-27T05:13:30.076Z,83.41
2018-09-27T05:14:30.032Z,83.41
2018-09-27T05:15:30.116Z,83.11
2018-09-27T05:16:30.045Z,83.62
2018-09-27T05:17:30.005Z,83.31
2018-09-27T05:18:29.987Z,82.79
2018-09-27T05:19:30.009Z,83.20
2018-09-27T05:20:30.002Z,83.41
2018-09-27T05:21:29.998Z,83.31
2018-09-27T05:22:29.939Z,83.41
2018-09-27T05:23:29.989Z,83.20
2018-09-27T05:24:29.947Z,83.20
2018-09-27T05:25:29.915Z,83.41
2018-09-27T05:26:30.026Z,82.90
2018-09-27T05:27:29.913Z,82.69
2018-09-27T05:28:29.877Z,82.39
2018-09-27T05:29:29.876Z,82.79
2018-09-27T05:30:29.856Z,83.11
2018-09-27T05:31:29.878Z,83.31
2018-09-27T05:32:29.835Z,83.45
2018-09-27T05:33:29.892Z,83.31
2018-09-27T05:34:29.861Z,83.83
2018-09-27T05:35:29.802Z,85.16
2018-09-27T05:36:29.789Z,85.57
2018-09-27T05:37:29.784Z,86.50
2018-09-27T05:38:29.770Z,86.35
2018-09-27T05:39:29.878Z,85.02
2018-09-27T05:40:29.746Z,83.68
2018-09-27T05:41:29.733Z,83.48
2018-09-27T05:42:29.767Z,82.86
2018-09-27T05:43:29.710Z,82.86
2018-09-27T05:44:29.707Z,82.45
2018-09-27T05:45:29.697Z,82.14
2018-09-27T05:46:29.679Z,82.04
2018-09-27T05:47:29.720Z,81.93
2018-09-27T05:48:29.656Z,82.04
2018-09-27T05:49:29.643Z,81.62
2018-09-27T05:50:29.668Z,81.21
2018-09-27T05:51:29.678Z,81.32
2018-09-27T05:52:29.640Z,81.32
2018-09-27T05:53:29.596Z,81.42
2018-09-27T05:54:29.589Z,81.21
2018-09-27T05:55:29.579Z,81.62
2018-09-27T05:56:29.602Z,81.21
2018-09-27T05:57:29.641Z,81.48
2018-09-27T05:58:29.548Z,81.28
2018-09-27T05:59:29.540Z,81.28
2018-09-27T06:00:29.541Z,82.10
2018-09-27T06:01:29.579Z,81.07
2018-09-27T06:02:29.539Z,81.48
2018-09-27T06:03:29.570Z,81.07
2018-09-27T06:04:29.481Z,81.28
2018-09-27T06:05:29.468Z,81.28
2018-09-27T06:06:29.559Z,81.48
2018-09-27T06:07:29.446Z,81.18
2018-09-27T06:08:29.473Z,82.20
2018-09-27T06:09:29.499Z,80.97
2018-09-27T06:10:29.406Z,80.97
2018-09-27T06:11:29.445Z,81.18
2018-09-27T06:12:29.392Z,81.48
2018-09-27T06:13:29.420Z,81.48
2018-09-27T06:14:29.367Z,82.71
2018-09-27T06:15:29.416Z,82.62
2018-09-27T06:16:29.340Z,82.62
2018-09-27T06:17:29.333Z,82.06
2018-09-27T06:18:29.357Z,81.86
2018-09-27T06:19:29.344Z,81.41
2018-09-27T06:20:29.299Z,80.90
2018-09-27T06:21:29.311Z,81.04
2018-09-27T06:22:29.300Z,80.79
2018-09-27T06:23:29.264Z,80.69
2018-09-27T06:24:29.259Z,80.28
2018-09-27T06:25:29.248Z,80.69
2018-09-27T06:26:29.286Z,80.28
2018-09-27T06:27:29.294Z,80.49
2018-09-27T06:28:29.222Z,79.77
2018-09-27T06:29:29.246Z,80.07
2018-09-27T06:30:29.250Z,79.46
2018-09-27T06:31:29.175Z,79.05
2018-09-27T06:32:29.169Z,79.05
2018-09-27T06:33:29.211Z,79.25
2018-09-27T06:34:29.148Z,78.94
2018-09-27T06:35:29.132Z,79.66
2018-09-27T06:36:29.153Z,79.52
2018-09-27T06:37:29.108Z,79.83
2018-09-27T06:38:29.134Z,79.42
2018-09-27T06:39:29.115Z,79.63
2018-09-27T06:40:29.074Z,79.11
2018-09-27T06:41:29.134Z,77.98
2018-09-27T06:42:29.052Z,77.37
2018-09-27T06:43:29.063Z,77.78
2018-09-27T06:44:29.040Z,77.88
2018-09-27T06:45:29.016Z,77.84
2018-09-27T06:46:29.137Z,77.33
2018-09-27T06:47:28.998Z,76.92
2018-09-27T06:48:29.043Z,76.62
2018-09-27T06:49:28.980Z,76.68
2018-09-27T06:50:29.019Z,75.56
2018-09-27T06:51:28.959Z,75.45
2018-09-27T06:52:28.945Z,75.45
2018-09-27T06:53:28.977Z,75.21
2018-09-27T06:54:28.923Z,75.82
2018-09-27T06:55:29.073Z,75.52
2018-09-27T06:56:28.919Z,75.42
2018-09-27T06:57:28.884Z,76.03
2018-09-27T06:58:28.924Z,74.97
2018-09-27T06:59:28.880Z,74.05
2018-09-27T07:00:28.852Z,73.85
2018-09-27T07:01:28.841Z,73.23
2018-09-27T07:02:28.857Z,73.44
2018-09-27T07:03:28.863Z,73.54
2018-09-27T07:04:28.804Z,73.23
2018-09-27T07:05:28.800Z,72.89
2018-09-27T07:06:28.812Z,73.30
2018-09-27T07:07:28.768Z,72.89
2018-09-27T07:08:28.788Z,73.10
2018-09-27T07:09:28.757Z,72.69
2018-09-27T07:10:28.803Z,72.89
2018-09-27T07:11:28.772Z,72.48
2018-09-27T07:12:28.872Z,72.14
2018-09-27T07:13:28.706Z,72.14
2018-09-27T07:14:28.713Z,71.12
2018-09-27T07:15:28.701Z,71.08
2018-09-27T07:16:28.710Z,70.16
2018-09-27T07:17:28.660Z,70.67
2018-09-27T07:18:28.649Z,70.47
2018-09-27T07:19:28.680Z,70.64
2018-09-27T07:20:28.633Z,69.11
2018-09-27T07:21:28.638Z,69.11
2018-09-27T07:22:28.619Z,69.42
2018-09-27T07:23:28.593Z,69.38
2018-09-27T07:24:28.580Z,69.48
2018-09-27T07:25:28.609Z,69.07
2018-09-27T07:26:28.712Z,69.07
2018-09-27T07:27:28.561Z,68.57
2018-09-27T07:28:28.539Z,68.33
2018-09-27T07:29:28.550Z,67.92
2018-09-27T07:30:28.512Z,67.82
2018-09-27T07:31:28.504Z,67.92
2018-09-27T07:32:28.577Z,67.38
2018-09-27T07:33:28.490Z,67.07
2018-09-27T07:34:28.507Z,67.48
2018-09-27T07:35:28.467Z,67.07
2018-09-27T07:36:28.460Z,67.14
2018-09-27T07:37:28.474Z,66.33
2018-09-27T07:38:28.452Z,66.22
2018-09-27T07:39:28.415Z,66.42
2018-09-27T07:40:28.413Z,66.12
2018-09-27T07:41:28.387Z,65.81
2018-09-27T07:43:37.609Z,65.37
2018-09-27T07:44:37.612Z,65.28
2018-09-27T07:45:37.597Z,64.76
2018-09-27T07:46:37.552Z,64.76
2018-09-27T07:47:37.548Z,63.44
2018-09-27T07:48:37.631Z,63.31
2018-09-27T07:49:37.513Z,63.54
2018-09-27T07:50:37.570Z,64.02
2018-09-27T07:51:37.524Z,64.12
2018-09-27T07:52:37.480Z,64.12
2018-09-27T07:53:37.510Z,63.58
2018-09-27T07:54:37.629Z,63.68
2018-09-27T07:55:37.447Z,63.38
2018-09-27T07:56:37.450Z,63.28
2018-09-27T07:57:37.510Z,63.24
2018-09-27T07:58:37.459Z,62.87
2018-09-27T07:59:37.404Z,63.15
2018-09-27T08:00:37.395Z,63.24
2018-09-27T08:01:37.382Z,62.33
2018-09-27T08:02:37.440Z,61.93
2018-09-27T08:03:37.417Z,62.43
2018-09-27T08:04:37.352Z,61.82
2018-09-27T08:05:37.340Z,61.93
2018-09-27T08:06:37.325Z,61.99
2018-09-27T08:07:37.313Z,61.59
2018-09-27T08:08:37.351Z,62.81
2018-09-27T08:09:37.296Z,61.90
2018-09-27T08:10:37.278Z,61.79
2018-09-27T08:11:37.330Z,62.07
2018-09-27T08:12:37.281Z,61.25
2018-09-27T08:13:37.251Z,61.25
2018-09-27T08:14:37.341Z,60.95
2018-09-27T08:15:37.238Z,60.54
2018-09-27T08:16:37.245Z,60.34
2018-09-27T08:17:37.249Z,61.36
2018-09-27T08:18:37.191Z,61.15
2018-09-27T08:19:37.185Z,61.25
2018-09-27T08:20:37.305Z,61.22
2018-09-27T08:21:37.168Z,60.11
2018-09-27T08:22:37.182Z,60.72
2018-09-27T08:23:37.134Z,60.11
2018-09-27T08:24:37.152Z,60.00
2018-09-27T08:25:37.120Z,60.52
2018-09-27T08:26:37.145Z,60.41
2018-09-27T08:27:37.097Z,60.21
2018-09-27T08:28:37.085Z,59.16
2018-09-27T08:29:37.111Z,58.45
2018-09-27T08:30:37.117Z,59.67
2018-09-27T08:31:37.050Z,58.86
2018-09-27T08:32:37.063Z,58.45
2018-09-27T08:33:37.030Z,59.98
2018-09-27T08:34:37.159Z,59.44
2018-09-27T08:35:37.005Z,59.44
2018-09-27T08:36:37.018Z,59.34
2018-09-27T08:37:37.063Z,59.54
2018-09-27T08:38:37.096Z,58.73
2018-09-27T08:39:36.978Z,58.42
2018-09-27T08:40:36.947Z,57.92
2018-09-27T08:41:36.944Z,57.68
2018-09-27T08:42:36.971Z,57.89
2018-09-27T08:43:36.957Z,57.48
2018-09-27T08:44:36.963Z,57.59
2018-09-27T08:45:36.977Z,57.68
2018-09-27T08:46:36.895Z,57.28
2018-09-27T08:47:36.869Z,57.86
2018-09-27T08:48:36.862Z,57.25
2018-09-27T08:49:36.893Z,57.28
2018-09-27T08:50:36.841Z,56.95
2018-09-27T08:51:36.857Z,56.95
2018-09-27T08:52:36.819Z,56.65
2018-09-27T08:53:36.879Z,56.74
2018-09-27T08:54:36.847Z,56.82
2018-09-27T08:55:36.869Z,56.92
2018-09-27T08:56:36.778Z,56.92
2018-09-27T08:57:36.778Z,56.72
2018-09-27T08:58:36.762Z,55.91
2018-09-27T08:59:36.788Z,56.11
2018-09-27T09:00:36.728Z,55.91
2018-09-27T09:01:36.802Z,56.09
2018-09-27T09:02:36.719Z,56.11
2018-09-27T09:03:36.816Z,55.98
2018-09-27T09:04:36.696Z,56.39
2018-09-27T09:05:36.718Z,56.09
2018-09-27T09:06:36.664Z,55.68
2018-09-27T09:07:36.772Z,55.96
2018-09-27T09:08:36.643Z,56.16
2018-09-27T09:09:36.664Z,55.68
2018-09-27T09:10:36.667Z,55.25
2018-09-27T09:11:36.616Z,55.15
2018-09-27T09:12:36.595Z,55.04
2018-09-27T09:13:36.669Z,54.84
2018-09-27T09:14:36.571Z,54.51
2018-09-27T09:15:36.610Z,54.41
2018-09-27T09:16:36.557Z,54.41
2018-09-27T09:17:36.545Z,54.41
2018-09-27T09:18:36.529Z,53.40
2018-09-27T09:19:36.616Z,53.50
2018-09-27T09:20:36.573Z,53.70
2018-09-27T09:21:36.602Z,54.21
2018-09-27T09:22:36.479Z,53.88
2018-09-27T09:23:36.481Z,53.98
2018-09-27T09:24:36.540Z,54.08
2018-09-27T09:25:36.456Z,54.08
2018-09-27T09:26:36.509Z,53.85
2018-09-27T09:27:36.470Z,53.14
2018-09-27T09:28:36.480Z,52.84
2018-09-27T09:29:36.511Z,52.33
2018-09-27T09:30:36.426Z,52.54
2018-09-27T09:31:36.377Z,52.21
2018-09-27T09:32:36.370Z,52.31
2018-09-27T09:33:36.394Z,51.60
2018-09-27T09:34:36.350Z,51.60
2018-09-27T09:35:36.445Z,51.81
2018-09-27T09:36:36.329Z,51.40
2018-09-27T09:37:36.313Z,51.37
2018-09-27T09:38:36.314Z,51.17
2018-09-27T09:39:36.325Z,51.88
2018-09-27T09:40:36.283Z,51.78
2018-09-27T09:41:36.315Z,51.88
2018-09-27T09:42:36.259Z,51.57
2018-09-27T09:43:36.247Z,51.98
2018-09-27T09:44:36.235Z,52.06
2018-09-27T09:45:36.224Z,50.44
2018-09-27T09:46:36.249Z,50.44
2018-09-27T09:47:36.216Z,50.74
2018-09-27T09:48:36.193Z,50.74
2018-09-27T09:49:36.181Z,50.24
2018-09-27T09:50:36.172Z,49.22
2018-09-27T09:51:36.207Z,49.30
2018-09-27T09:52:36.149Z,50.62
2018-09-27T09:53:36.137Z,50.12
2018-09-27T09:54:36.199Z,49.10
2018-09-27T09:55:36.117Z,49.21
2018-09-27T09:56:36.150Z,49.48
2018-09-27T09:57:36.120Z,49.61
2018-09-27T09:58:36.096Z,49.28
2018-09-27T09:59:36.114Z,48.47
2018-09-27T10:00:36.064Z,48.78
2018-09-27T10:01:36.055Z,48.37
2018-09-27T10:02:36.320Z,48.47
2018-09-27T10:03:36.063Z,48.55
2018-09-27T10:04:36.021Z,48.35
2018-09-27T10:05:36.006Z,47.64
2018-09-27T10:06:35.996Z,47.74
2018-09-27T10:07:36.027Z,47.64
2018-09-27T10:08:36.003Z,48.05
2018-09-27T10:09:36.022Z,48.35
2018-09-27T10:10:35.953Z,47.42
2018-09-27T10:11:35.941Z,46.81
2018-09-27T10:12:35.925Z,45.90
2018-09-27T10:13:35.928Z,46.21
2018-09-27T10:14:35.951Z,46.41
2018-09-27T10:15:35.899Z,45.98
2018-09-27T10:16:35.888Z,46.71
2018-09-27T10:17:35.872Z,46.59
2018-09-27T10:18:35.893Z,47.19
2018-09-27T10:19:35.920Z,46.99
2018-09-27T10:20:35.872Z,47.60
2018-09-27T10:21:35.883Z,47.80
2018-09-27T10:22:35.918Z,47.90
2018-09-27T10:23:35.861Z,48.00
2018-09-27T10:24:35.791Z,47.60
2018-09-27T10:25:35.791Z,47.19
2018-09-27T10:26:35.776Z,48.00
2018-09-27T10:27:35.930Z,48.58
2018-09-27T10:28:35.791Z,47.88
2018-09-27T10:29:35.744Z,48.91
2018-09-27T10:30:35.736Z,47.88
2018-09-27T10:31:35.775Z,47.58
2018-09-27T10:32:35.706Z,46.57
2018-09-27T10:33:35.698Z,46.37
2018-09-27T10:34:35.737Z,47.07
2018-09-27T10:35:35.722Z,45.34
2018-09-27T10:36:35.669Z,45.44
2018-09-27T10:37:35.656Z,45.54
2018-09-27T10:38:35.640Z,45.44
2018-09-27T10:39:35.683Z,44.63
2018-09-27T10:40:35.669Z,45.03
2018-09-27T10:41:35.613Z,45.03
2018-09-27T10:42:35.601Z,45.44
2018-09-27T10:43:35.643Z,44.51
2018-09-27T10:44:35.586Z,48.24
2018-09-27T10:45:35.568Z,44.49
2018-09-27T10:46:35.608Z,45.19
2018-09-27T10:47:35.547Z,44.61
2018-09-27T10:48:35.538Z,44.59
2018-09-27T10:49:35.521Z,44.49
2018-09-27T10:50:35.552Z,43.99
2018-09-27T10:51:35.508Z,44.67
2018-09-27T10:52:35.488Z,43.18
2018-09-27T10:53:35.480Z,42.88
2018-09-27T10:54:35.495Z,43.59
2018-09-27T10:55:35.459Z,42.55
2018-09-27T10:56:35.446Z,43.16
2018-09-27T10:57:35.480Z,43.16
2018-09-27T10:58:35.439Z,42.66
2018-09-27T10:59:35.492Z,41.75
2018-09-27T11:00:35.401Z,40.44
2018-09-27T11:01:35.388Z,40.83
2018-09-27T11:02:35.470Z,41.03
2018-09-27T11:03:35.367Z,41.15
2018-09-27T11:04:35.405Z,40.42
2018-09-27T11:05:35.367Z,39.82
2018-09-27T11:06:35.331Z,40.42
2018-09-27T11:07:35.322Z,40.53
2018-09-27T11:08:35.965Z,40.83
2018-09-27T11:09:35.324Z,40.22
2018-09-27T11:10:35.294Z,40.53
2018-09-27T11:11:35.377Z,40.22
2018-09-27T11:12:35.347Z,40.61
2018-09-27T11:13:35.257Z,40.22
2018-09-27T11:14:35.240Z,41.03
2018-09-27T11:15:35.283Z,41.01
2018-09-27T11:16:35.282Z,40.41
2018-09-27T11:17:35.237Z,39.10
2018-09-27T11:18:35.198Z,40.30
2018-09-27T11:19:35.199Z,40.53
2018-09-27T11:20:35.175Z,41.21
2018-09-27T11:21:35.175Z,38.79
2018-09-27T11:22:35.200Z,38.60
2018-09-27T11:23:35.220Z,39.30
2018-09-27T11:24:35.136Z,38.58
2018-09-27T11:25:35.152Z,37.99
2018-09-27T11:26:35.118Z,37.77
2018-09-27T11:27:35.135Z,37.57
2018-09-27T11:28:35.094Z,37.27
2018-09-27T11:29:35.081Z,37.79
2018-09-27T11:30:35.113Z,37.87
2018-09-27T11:31:35.064Z,37.79
2018-09-27T11:32:35.048Z,37.98
2018-09-27T11:33:35.038Z,39.08
2018-09-27T11:34:35.062Z,36.97
2018-09-27T11:35:35.009Z,35.86
2018-09-27T11:36:34.997Z,35.66
2018-09-27T11:37:35.029Z,35.98
2018-09-27T11:38:35.061Z,35.68
2018-09-27T11:39:35.840Z,35.77
2018-09-27T11:40:34.959Z,35.86
2018-09-27T11:41:35.034Z,36.57
2018-09-27T11:42:35.072Z,35.66
2018-09-27T11:43:35.050Z,35.06
2018-09-27T11:44:34.911Z,33.65
2018-09-27T11:45:34.897Z,34.66
2018-09-27T11:46:34.889Z,35.46
2018-09-27T11:47:34.880Z,33.75
2018-09-27T11:48:34.918Z,36.97
2018-09-27T11:49:34.993Z,35.66
2018-09-27T11:50:34.843Z,35.05
2018-09-27T11:51:34.837Z,34.74
2018-09-27T11:52:34.853Z,34.04
2018-09-27T11:53:34.819Z,32.93
2018-09-27T11:54:34.827Z,34.44
2018-09-27T11:55:34.907Z,35.05
2018-09-27T11:56:34.783Z,34.24
2018-09-27T11:57:34.807Z,34.64
2018-09-27T11:58:34.787Z,34.64
2018-09-27T11:59:34.748Z,34.54
2018-09-27T12:00:34.796Z,34.92
2018-09-27T12:01:34.788Z,35.25
2018-09-27T12:02:34.755Z,35.14
2018-09-27T12:03:34.701Z,35.43
2018-09-27T12:04:34.778Z,35.25
2018-09-27T12:05:34.918Z,35.25
2018-09-27T12:06:34.769Z,36.05
2018-09-27T12:07:34.711Z,36.15
2018-09-27T12:08:34.648Z,35.73
2018-09-27T12:09:34.640Z,35.93
2018-09-27T12:10:34.677Z,35.83
2018-09-27T12:11:34.616Z,36.03
2018-09-27T12:12:34.614Z,37.04
2018-09-27T12:13:34.599Z,36.41
2018-09-27T12:14:34.602Z,35.82
2018-09-27T12:15:34.624Z,35.60
2018-09-27T12:16:34.599Z,34.69
2018-09-27T12:17:34.593Z,34.08
2018-09-27T12:18:34.543Z,34.16
2018-09-27T12:19:34.543Z,34.05
2018-09-27T12:20:34.559Z,34.84
2018-09-27T12:21:34.502Z,34.63
2018-09-27T12:22:34.545Z,32.71
2018-09-27T12:23:34.487Z,33.39
2018-09-27T12:24:34.474Z,31.38
2018-09-27T12:25:34.513Z,31.87
2018-09-27T12:26:34.453Z,30.85
2018-09-27T12:27:34.472Z,29.95
2018-09-27T12:28:34.484Z,29.64
2018-09-27T12:29:34.422Z,29.63
2018-09-27T12:30:34.421Z,29.33
2018-09-27T12:31:34.437Z,29.43
2018-09-27T12:32:34.392Z,29.22
2018-09-27T12:33:34.374Z,29.91
2018-09-27T12:34:34.366Z,29.31
2018-09-27T12:35:34.351Z,29.41
2018-09-27T12:36:34.412Z,30.99
2018-09-27T12:37:34.331Z,31.87
2018-09-27T12:38:34.441Z,29.58
2018-09-27T12:39:34.344Z,29.27
2018-09-27T12:40:34.381Z,28.66
2018-09-27T12:41:34.384Z,28.56
2018-09-27T12:42:34.428Z,28.76
2018-09-27T12:43:34.266Z,27.45
2018-09-27T12:44:34.278Z,27.25
2018-09-27T12:45:34.317Z,27.15
2018-09-27T12:46:34.365Z,26.74
2018-09-27T12:47:34.262Z,27.14
2018-09-27T12:48:34.381Z,26.54
2018-09-27T12:49:34.209Z,27.12
2018-09-27T12:50:34.230Z,27.12
2018-09-27T12:51:34.316Z,26.93
2018-09-27T12:52:34.344Z,27.03
2018-09-27T12:53:34.166Z,27.21
2018-09-27T12:54:34.147Z,26.92